Time;durP1;ratioP1;P1;durP2;ratioP2;P2;SDS_P1;SDS_P2;PMS_P1;PMS_P2;Temp;Humidity;BMP_temperature;BMP_pressure;BME280_temperature;BME280_humidity;BME280_pressure;Samples;Min_cycle;Max_cycle;Signal;HPM_P1;HPM_P2
2022/05/31 00:01:52;;;;;;;2.33;1.60;;;;;;;;;;5047352;28;20217;-75
2022/05/31 00:04:18;;;;;;;1.80;1.60;;;;;;;;;;5057125;28;20216;-75
2022/05/31 00:06:45;;;;;;;4.70;1.70;;;;;;;;;;5067259;28;20181;-75
2022/05/31 00:09:12;;;;;;;2.53;1.63;;;;;;;;;;5056490;28;20193;-75
2022/05/31 00:11:41;;;;;;;2.00;1.70;;;;;;;;;;5063037;28;20193;-75
2022/05/31 00:14:07;;;;;;;1.70;1.60;;;;;;;;;;5060134;28;20217;-75
2022/05/31 00:16:33;;;;;;;2.43;1.70;;;;;;;;;;5069112;28;20307;-75
2022/05/31 00:18:59;;;;;;;3.60;1.77;;;;;;;;;;5069457;28;20196;-75
2022/05/31 00:21:31;;;;;;;1.80;1.60;;;;;;;;;;5067806;28;20209;-75
2022/05/31 00:23:58;;;;;;;3.30;1.60;;;;;;;;;;5072803;28;20239;-75
2022/05/31 00:26:24;;;;;;;2.47;1.80;;;;;;;;;;5073835;28;20173;-75
2022/05/31 00:28:50;;;;;;;3.17;2.10;;;;;;;;;;5065289;28;20178;-75
2022/05/31 00:31:16;;;;;;;1.77;1.63;;;;;;;;;;5066673;28;20189;-75
2022/05/31 00:33:42;;;;;;;1.87;1.47;;;;;;;;;;5060814;28;20209;-75
2022/05/31 00:36:10;;;;;;;2.60;1.50;;;;;;;;;;5063007;28;20193;-75
2022/05/31 00:38:36;;;;;;;2.10;1.73;;;;;;;;;;5054450;28;20193;-75
2022/05/31 00:41:25;;;;;;;2.17;1.50;;;;;;;;;;5072067;28;20267;-75
2022/05/31 00:43:53;;;;;;;1.40;1.30;;;;;;;;;;5063783;28;20216;-75
2022/05/31 00:46:21;;;;;;;2.17;1.43;;;;;;;;;;5070320;28;20197;-75
2022/05/31 00:48:55;;;;;;;2.17;1.80;;;;;;;;;;5068627;28;20171;-75
2022/05/31 00:51:22;;;;;;;1.73;1.60;;;;;;;;;;5052292;28;20660;-75
2022/05/31 00:53:51;;;;;;;2.07;1.47;;;;;;;;;;5075683;28;20198;-75
2022/05/31 00:56:22;;;;;;;1.50;1.40;;;;;;;;;;5069768;28;20186;-75
2022/05/31 00:58:55;;;;;;;3.00;1.90;;;;;;;;;;5068595;28;20763;-75
2022/05/31 01:01:21;;;;;;;1.97;1.60;;;;;;;;;;5066010;28;20208;-75
2022/05/31 01:03:48;;;;;;;2.83;1.60;;;;;;;;;;5063520;28;20690;-75
2022/05/31 01:06:14;;;;;;;1.90;1.43;;;;;;;;;;5067137;28;20182;-75
2022/05/31 01:08:45;;;;;;;2.53;1.60;;;;;;;;;;5068892;28;20189;-75
2022/05/31 01:11:38;;;;;;;1.93;1.70;;;;;;;;;;5058983;28;20186;-75
2022/05/31 01:14:23;;;;;;;2.20;1.70;;;;;;;;;;5070497;28;20196;-75
2022/05/31 01:17:13;;;;;;;2.00;1.50;;;;;;;;;;5081413;28;20191;-75
2022/05/31 01:20:01;;;;;;;2.73;1.40;;;;;;;;;;5064974;28;20649;-75
2022/05/31 01:22:50;;;;;;;2.17;1.70;;;;;;;;;;5063609;28;20217;-75
2022/05/31 01:25:29;;;;;;;2.33;1.50;;;;;;;;;;5067985;28;20177;-75
2022/05/31 01:28:01;;;;;;;1.90;1.50;;;;;;;;;;5070342;28;20649;-75
2022/05/31 01:30:29;;;;;;;2.17;1.60;;;;;;;;;;5051270;28;20180;-75
2022/05/31 01:32:59;;;;;;;1.63;1.50;;;;;;;;;;5067568;28;20758;-75
2022/05/31 01:35:27;;;;;;;2.10;1.70;;;;;;;;;;5069671;28;20185;-75
2022/05/31 01:38:03;;;;;;;1.60;1.50;;;;;;;;;;5072059;28;20215;-75
2022/05/31 01:40:49;;;;;;;3.07;1.60;;;;;;;;;;5059885;28;20185;-75
2022/05/31 01:43:15;;;;;;;1.30;1.20;;;;;;;;;;5061624;28;20653;-75
2022/05/31 01:45:49;;;;;;;2.00;1.30;;;;;;;;;;5043031;28;20279;-75
2022/05/31 01:48:16;;;;;;;2.63;1.30;;;;;;;;;;5070165;28;20666;-75
2022/05/31 01:50:45;;;;;;;1.57;1.40;;;;;;;;;;5067366;28;20200;-75
2022/05/31 01:53:13;;;;;;;2.80;1.83;;;;;;;;;;5053039;28;20226;-75
2022/05/31 01:55:41;;;;;;;2.00;1.40;;;;;;;;;;5053814;28;20216;-75
2022/05/31 01:58:09;;;;;;;1.70;1.60;;;;;;;;;;5067091;28;20188;-75
2022/05/31 02:00:36;;;;;;;1.50;1.40;;;;;;;;;;5050765;28;20262;-75
2022/05/31 02:03:04;;;;;;;1.60;1.50;;;;;;;;;;5064121;28;20314;-75
2022/05/31 02:05:30;;;;;;;1.60;1.47;;;;;;;;;;5063625;28;20185;-75
2022/05/31 02:07:58;;;;;;;1.70;1.40;;;;;;;;;;5071802;28;20219;-75
2022/05/31 02:10:25;;;;;;;1.53;1.30;;;;;;;;;;5042983;28;20213;-75
2022/05/31 02:12:53;;;;;;;2.17;1.50;;;;;;;;;;5063050;28;20205;-75
2022/05/31 02:15:23;;;;;;;1.77;1.53;;;;;;;;;;5074340;28;20209;-75
2022/05/31 02:18:10;;;;;;;1.70;1.30;;;;;;;;;;5061683;28;20197;-75
2022/05/31 02:20:54;;;;;;;1.57;1.30;;;;;;;;;;5064868;28;20207;-75
2022/05/31 02:23:20;;;;;;;1.90;1.40;;;;;;;;;;5069502;28;20223;-75
2022/05/31 02:25:46;;;;;;;3.07;1.30;;;;;;;;;;5069619;28;20181;-75
2022/05/31 02:28:12;;;;;;;2.00;1.50;;;;;;;;;;5062366;28;20178;-75
2022/05/31 02:30:38;;;;;;;1.43;1.30;;;;;;;;;;5053287;28;20262;-75
2022/05/31 02:33:05;;;;;;;1.93;1.27;;;;;;;;;;5062710;28;20209;-75
2022/05/31 02:35:31;;;;;;;2.10;1.40;;;;;;;;;;5042334;28;20193;-75
2022/05/31 02:37:58;;;;;;;1.90;1.47;;;;;;;;;;5066731;28;20192;-75
2022/05/31 02:40:25;;;;;;;1.77;1.50;;;;;;;;;;5050876;28;20187;-75
2022/05/31 02:42:51;;;;;;;2.10;1.50;;;;;;;;;;5065575;28;20225;-75
2022/05/31 02:45:17;;;;;;;1.73;1.33;;;;;;;;;;5059389;28;20209;-75
2022/05/31 02:47:44;;;;;;;1.83;1.47;;;;;;;;;;5069908;28;20184;-75
2022/05/31 02:50:11;;;;;;;2.60;1.63;;;;;;;;;;5047376;28;20174;-75
2022/05/31 02:52:37;;;;;;;1.40;1.30;;;;;;;;;;5065859;28;20200;-75
2022/05/31 02:55:04;;;;;;;1.70;1.60;;;;;;;;;;5047532;28;20181;-75
2022/05/31 02:57:30;;;;;;;3.40;1.70;;;;;;;;;;5067855;28;20173;-75
2022/05/31 03:00:16;;;;;;;4.87;1.67;;;;;;;;;;5060171;28;20239;-75
2022/05/31 03:03:01;;;;;;;2.60;1.40;;;;;;;;;;5061033;28;20209;-75
2022/05/31 03:05:46;;;;;;;1.60;1.50;;;;;;;;;;5055090;28;20235;-75
2022/05/31 03:08:24;;;;;;;2.50;1.63;;;;;;;;;;5053622;28;20250;-75
2022/05/31 03:11:25;;;;;;;1.57;1.43;;;;;;;;;;5067209;28;20294;-75
2022/05/31 03:13:53;;;;;;;1.47;1.30;;;;;;;;;;5068603;28;20657;-75
2022/05/31 03:16:21;;;;;;;1.87;1.40;;;;;;;;;;5048434;28;20182;-75
2022/05/31 03:18:49;;;;;;;1.60;1.40;;;;;;;;;;5062752;28;20189;-75
2022/05/31 03:21:24;;;;;;;2.80;1.40;;;;;;;;;;5068596;28;20187;-75
2022/05/31 03:23:53;;;;;;;1.60;1.30;;;;;;;;;;5068763;28;20205;-75
2022/05/31 03:26:21;;;;;;;1.57;1.30;;;;;;;;;;5059501;28;20178;-75
2022/05/31 03:28:48;;;;;;;2.13;1.50;;;;;;;;;;5062164;28;20219;-75
2022/05/31 03:31:14;;;;;;;1.50;1.40;;;;;;;;;;5066918;28;20181;-75
2022/05/31 03:33:40;;;;;;;1.60;1.50;;;;;;;;;;5048662;28;20197;-75
2022/05/31 03:36:06;;;;;;;1.60;1.47;;;;;;;;;;5061875;28;20664;-75
2022/05/31 03:38:40;;;;;;;1.53;1.40;;;;;;;;;;5056607;28;20226;-75
2022/05/31 03:41:09;;;;;;;2.17;1.70;;;;;;;;;;5047613;28;20505;-75
2022/05/31 03:43:45;;;;;;;2.40;1.60;;;;;;;;;;5071007;28;20239;-75
2022/05/31 03:46:34;;;;;;;1.93;1.77;;;;;;;;;;5064292;28;20194;-75
2022/05/31 03:49:18;;;;;;;2.37;1.90;;;;;;;;;;5064529;28;20184;-75
2022/05/31 03:51:54;;;;;;;2.37;1.80;;;;;;;;;;5047126;28;20551;-75
2022/05/31 03:54:30;;;;;;;3.27;2.00;;;;;;;;;;5062490;28;20258;-75
2022/05/31 03:57:16;;;;;;;2.67;2.40;;;;;;;;;;5065032;28;20181;-75
2022/05/31 03:59:45;;;;;;;3.10;2.43;;;;;;;;;;5072785;28;20203;-75
2022/05/31 04:02:12;;;;;;;3.20;2.40;;;;;;;;;;5069783;28;20595;-75
2022/05/31 04:04:39;;;;;;;3.03;2.50;;;;;;;;;;5052739;28;20279;-76
2022/05/31 04:07:05;;;;;;;3.77;2.60;;;;;;;;;;5066349;28;20264;-75
2022/05/31 04:09:34;;;;;;;2.90;2.60;;;;;;;;;;5063223;28;20178;-75
2022/05/31 04:12:03;;;;;;;2.80;2.60;;;;;;;;;;5068774;28;20253;-75
2022/05/31 04:14:49;;;;;;;3.20;2.90;;;;;;;;;;5065352;28;20647;-78
2022/05/31 04:17:15;;;;;;;3.23;2.70;;;;;;;;;;5050450;28;20177;-75
2022/05/31 04:19:41;;;;;;;3.10;2.70;;;;;;;;;;5068409;28;20592;-75
2022/05/31 04:22:08;;;;;;;3.63;2.97;;;;;;;;;;5070183;28;20212;-74
2022/05/31 04:24:34;;;;;;;3.00;2.70;;;;;;;;;;5062297;28;20205;-74
2022/05/31 04:27:19;;;;;;;4.17;3.00;;;;;;;;;;5072716;28;20189;-74
2022/05/31 04:30:04;;;;;;;3.80;2.93;;;;;;;;;;5070116;28;20196;-74
2022/05/31 04:33:00;;;;;;;3.20;2.90;;;;;;;;;;5065891;28;20228;-74
2022/05/31 04:35:32;;;;;;;3.67;3.30;;;;;;;;;;5055013;28;20210;-74
2022/05/31 04:37:58;;;;;;;6.37;2.90;;;;;;;;;;5047959;28;20197;-74
2022/05/31 04:40:51;;;;;;;3.40;3.00;;;;;;;;;;5065919;28;20193;-75
2022/05/31 04:43:35;;;;;;;4.83;3.63;;;;;;;;;;5067212;28;20621;-74
2022/05/31 04:46:13;;;;;;;4.40;3.67;;;;;;;;;;5071939;28;20189;-75
2022/05/31 04:49:06;;;;;;;7.83;4.10;;;;;;;;;;5056705;28;20193;-75
2022/05/31 04:51:34;;;;;;;7.60;4.13;;;;;;;;;;5061283;28;20190;-74
2022/05/31 04:54:03;;;;;;;5.53;3.57;;;;;;;;;;5070200;28;20193;-77
2022/05/31 04:56:38;;;;;;;5.53;4.00;;;;;;;;;;5063086;28;20264;-76
2022/05/31 04:59:07;;;;;;;5.93;3.80;;;;;;;;;;5059610;28;20554;-75
2022/05/31 05:01:34;;;;;;;6.63;3.97;;;;;;;;;;5070071;28;20209;-77
2022/05/31 05:04:04;;;;;;;6.00;3.87;;;;;;;;;;5050606;28;20252;-76
2022/05/31 05:06:34;;;;;;;3.90;3.50;;;;;;;;;;5060906;28;20189;-77
2022/05/31 05:09:00;;;;;;;4.83;3.10;;;;;;;;;;5068926;28;20177;-77
2022/05/31 05:11:26;;;;;;;4.40;3.40;;;;;;;;;;5053355;28;20189;-77
2022/05/31 05:13:59;;;;;;;4.00;3.60;;;;;;;;;;5056616;28;20493;-77
2022/05/31 05:16:55;;;;;;;4.70;3.43;;;;;;;;;;5069738;28;20626;-77
2022/05/31 05:19:22;;;;;;;4.10;3.70;;;;;;;;;;5049130;28;20182;-76
2022/05/31 05:21:55;;;;;;;3.93;3.20;;;;;;;;;;5052186;28;20205;-77
2022/05/31 05:24:22;;;;;;;5.50;3.73;;;;;;;;;;5070489;28;20200;-76
2022/05/31 05:27:07;;;;;;;6.73;3.87;;;;;;;;;;5065772;28;20180;-77
2022/05/31 05:32:40;;;;;;;7.23;3.80;;;;;;;;;;5065054;28;20696;-77
2022/05/31 05:35:14;;;;;;;4.37;3.97;;;;;;;;;;5048527;28;20200;-77
2022/05/31 05:37:44;;;;;;;13.27;4.00;;;;;;;;;;5051787;28;20244;-77
2022/05/31 05:40:11;;;;;;;5.23;3.73;;;;;;;;;;5046083;28;20181;-77
2022/05/31 05:42:47;;;;;;;5.00;3.83;;;;;;;;;;5066361;28;20216;-77
2022/05/31 05:45:27;;;;;;;5.50;3.90;;;;;;;;;;5050704;28;20260;-76
2022/05/31 05:47:54;;;;;;;4.50;3.50;;;;;;;;;;5060604;28;20598;-77
2022/05/31 05:50:20;;;;;;;6.53;3.90;;;;;;;;;;5058016;28;20200;-77
2022/05/31 05:52:56;;;;;;;3.87;3.57;;;;;;;;;;5069103;28;20292;-74
2022/05/31 05:55:41;;;;;;;5.03;3.40;;;;;;;;;;5060582;28;20235;-75
2022/05/31 05:58:26;;;;;;;7.17;3.60;;;;;;;;;;5070877;28;20265;-76
2022/05/31 06:01:14;;;;;;;4.47;3.50;;;;;;;;;;5065760;28;20185;-77
2022/05/31 06:04:07;;;;;;;5.30;3.67;;;;;;;;;;5071123;28;20197;-79
2022/05/31 06:06:34;;;;;;;6.07;3.83;;;;;;;;;;5044598;28;20197;-76
2022/05/31 06:09:08;;;;;;;7.13;3.73;;;;;;;;;;5069260;28;20247;-76
2022/05/31 06:11:42;;;;;;;4.87;3.43;;;;;;;;;;5049214;28;20197;-76
2022/05/31 06:14:11;;;;;;;6.10;4.00;;;;;;;;;;5051870;28;20205;-75
2022/05/31 06:16:40;;;;;;;4.57;3.53;;;;;;;;;;5036402;28;20181;-76
2022/05/31 06:19:10;;;;;;;5.13;3.50;;;;;;;;;;5060603;28;20192;-75
2022/05/31 06:21:36;;;;;;;7.03;3.63;;;;;;;;;;5049646;28;20228;-74
2022/05/31 06:24:15;;;;;;;6.57;3.20;;;;;;;;;;5051684;28;20196;-76
2022/05/31 06:26:42;;;;;;;5.37;3.30;;;;;;;;;;5052435;28;20188;-77
2022/05/31 06:29:09;;;;;;;4.13;3.30;;;;;;;;;;5067883;28;20181;-77
2022/05/31 06:31:35;;;;;;;3.83;3.30;;;;;;;;;;5069933;28;20200;-77
2022/05/31 06:34:07;;;;;;;8.30;3.73;;;;;;;;;;5061681;28;20236;-77
2022/05/31 06:37:07;;;;;;;4.27;3.67;;;;;;;;;;5058842;28;20208;-77
2022/05/31 06:39:35;;;;;;;4.67;3.50;;;;;;;;;;5079406;28;20185;-77
2022/05/31 06:42:02;;;;;;;3.90;3.50;;;;;;;;;;5045849;28;20236;-77
2022/05/31 06:44:59;;;;;;;4.07;3.17;;;;;;;;;;5060247;28;20186;-77
2022/05/31 06:47:44;;;;;;;4.53;3.47;;;;;;;;;;5056604;28;20192;-77
2022/05/31 06:50:31;;;;;;;4.33;3.30;;;;;;;;;;5066851;28;20197;-77
2022/05/31 06:56:48;;;;;;;3.90;3.50;;;;;;;;;;5077710;28;20296;-77
2022/05/31 06:59:23;;;;;;;5.07;3.90;;;;;;;;;;5074179;28;20196;-77
2022/05/31 07:01:49;;;;;;;3.97;3.57;;;;;;;;;;5074993;28;20208;-77
2022/05/31 07:04:18;;;;;;;5.27;3.43;;;;;;;;;;5077171;28;20192;-77
2022/05/31 07:06:44;;;;;;;4.30;3.50;;;;;;;;;;5078048;28;20180;-76
2022/05/31 07:09:29;;;;;;;5.03;3.20;;;;;;;;;;5079180;28;20267;-77
2022/05/31 07:11:59;;;;;;;6.37;3.30;;;;;;;;;;5080465;28;20196;-77
2022/05/31 07:14:55;;;;;;;4.70;3.57;;;;;;;;;;5065051;28;20198;-77
2022/05/31 07:17:38;;;;;;;3.70;3.10;;;;;;;;;;5075590;28;20199;-77
2022/05/31 07:20:05;;;;;;;6.07;3.93;;;;;;;;;;5050556;28;20209;-76
2022/05/31 07:22:31;;;;;;;4.30;3.40;;;;;;;;;;5050883;28;20282;-77
2022/05/31 07:25:17;;;;;;;4.20;3.23;;;;;;;;;;5072346;28;20192;-77
2022/05/31 07:27:50;;;;;;;6.37;3.40;;;;;;;;;;5068843;28;20651;-77
2022/05/31 07:30:17;;;;;;;3.70;3.27;;;;;;;;;;5061566;28;20211;-76
2022/05/31 07:32:43;;;;;;;3.80;3.07;;;;;;;;;;5067636;28;20188;-77
2022/05/31 07:35:11;;;;;;;4.57;3.00;;;;;;;;;;5043628;28;20206;-77
2022/05/31 07:37:38;;;;;;;3.10;2.80;;;;;;;;;;5051597;28;20191;-77
2022/05/31 07:40:04;;;;;;;3.07;2.80;;;;;;;;;;5070867;28;20550;-77
2022/05/31 07:42:31;;;;;;;4.43;2.83;;;;;;;;;;5050886;28;20244;-76
2022/05/31 07:44:57;;;;;;;3.13;2.83;;;;;;;;;;5046569;28;20186;-77
2022/05/31 07:47:25;;;;;;;3.70;2.60;;;;;;;;;;5067999;28;20180;-77
2022/05/31 07:49:51;;;;;;;5.10;3.00;;;;;;;;;;5048257;28;20190;-77
2022/05/31 07:52:29;;;;;;;3.30;2.87;;;;;;;;;;5049515;28;20203;-76
2022/05/31 07:55:15;;;;;;;4.63;2.80;;;;;;;;;;5055050;28;20193;-77
2022/05/31 08:01:27;;;;;;;6.73;3.10;;;;;;;;;;5068236;28;20279;-77
2022/05/31 08:03:57;;;;;;;3.23;2.73;;;;;;;;;;5032533;28;20643;-78
2022/05/31 08:06:25;;;;;;;5.23;3.00;;;;;;;;;;5066268;28;20593;-77
2022/05/31 08:08:51;;;;;;;3.07;2.70;;;;;;;;;;5062182;28;20178;-77
2022/05/31 08:11:19;;;;;;;3.10;2.63;;;;;;;;;;5062063;28;20201;-77
2022/05/31 08:13:46;;;;;;;4.37;3.00;;;;;;;;;;5059838;28;20200;-76
2022/05/31 08:16:13;;;;;;;3.17;2.70;;;;;;;;;;5052759;28;20250;-77
2022/05/31 08:18:39;;;;;;;3.87;2.63;;;;;;;;;;5043981;28;20185;-77
2022/05/31 08:21:07;;;;;;;4.57;2.50;;;;;;;;;;5051027;28;20378;-76
2022/05/31 08:23:33;;;;;;;3.83;2.90;;;;;;;;;;5068343;28;20697;-77
2022/05/31 08:26:01;;;;;;;3.33;2.47;;;;;;;;;;5072126;28;20189;-76
2022/05/31 08:28:27;;;;;;;3.13;2.50;;;;;;;;;;5079333;28;20181;-77
2022/05/31 08:30:59;;;;;;;3.20;2.50;;;;;;;;;;5084678;28;20174;-77
2022/05/31 08:33:25;;;;;;;3.00;2.53;;;;;;;;;;5074192;28;20216;-77
2022/05/31 08:35:52;;;;;;;2.93;2.60;;;;;;;;;;5061905;28;20182;-77
2022/05/31 08:38:18;;;;;;;2.73;2.50;;;;;;;;;;5072860;28;20689;-77
2022/05/31 08:40:55;;;;;;;3.77;2.90;;;;;;;;;;5053395;28;20186;-77
2022/05/31 08:43:27;;;;;;;3.30;2.97;;;;;;;;;;5055863;28;20630;-77
2022/05/31 08:45:53;;;;;;;2.50;2.30;;;;;;;;;;5075065;28;20211;-77
2022/05/31 08:48:23;;;;;;;3.47;2.40;;;;;;;;;;5071166;28;20685;-77
2022/05/31 08:56:56;;;;;;;4.63;2.70;;;;;;;;;;5068833;28;20227;-77
2022/05/31 08:59:35;;;;;;;4.53;2.60;;;;;;;;;;5065360;28;20193;-76
2022/05/31 09:02:03;;;;;;;3.40;2.47;;;;;;;;;;5065608;28;20330;-77
2022/05/31 09:04:43;;;;;;;5.97;2.30;;;;;;;;;;5061251;28;20194;-77
2022/05/31 09:07:21;;;;;;;5.87;2.90;;;;;;;;;;5065432;28;20189;-78
2022/05/31 09:09:51;;;;;;;4.03;2.73;;;;;;;;;;5065269;28;20259;-79
2022/05/31 09:12:30;;;;;;;3.23;2.33;;;;;;;;;;5082805;28;20185;-78
2022/05/31 09:15:05;;;;;;;3.37;2.30;;;;;;;;;;5070820;28;20181;-78
2022/05/31 09:17:51;;;;;;;2.87;2.00;;;;;;;;;;5067753;28;20661;-78
2022/05/31 09:20:29;;;;;;;2.97;2.20;;;;;;;;;;5075984;28;20174;-78
2022/05/31 09:22:56;;;;;;;3.20;2.10;;;;;;;;;;5069120;28;20291;-75
2022/05/31 09:25:22;;;;;;;5.40;2.20;;;;;;;;;;5054658;28;20197;-76
2022/05/31 09:27:49;;;;;;;2.67;1.93;;;;;;;;;;5062882;28;20173;-77
2022/05/31 09:30:19;;;;;;;2.83;2.10;;;;;;;;;;5067580;28;20174;-78
2022/05/31 09:32:54;;;;;;;3.07;2.27;;;;;;;;;;5059328;28;20205;-78
2022/05/31 09:35:27;;;;;;;2.73;2.13;;;;;;;;;;5068802;28;20180;-77
2022/05/31 09:38:16;;;;;;;4.17;1.80;;;;;;;;;;5067846;28;20528;-78
2022/05/31 09:40:50;;;;;;;2.63;1.87;;;;;;;;;;5070963;28;20232;-78
2022/05/31 09:43:25;;;;;;;2.53;1.80;;;;;;;;;;5067190;28;20247;-78
2022/05/31 09:45:55;;;;;;;3.50;1.90;;;;;;;;;;5066856;28;20177;-78
2022/05/31 09:48:21;;;;;;;2.53;2.10;;;;;;;;;;5069688;28;20189;-78
2022/05/31 09:50:48;;;;;;;2.47;2.27;;;;;;;;;;5072569;28;20185;-78
2022/05/31 09:59:13;;;;;;;4.27;2.67;;;;;;;;;;5066134;28;20249;-78
2022/05/31 10:02:24;;;;;;;3.90;2.60;;;;;;;;;;5066005;28;20252;-78
2022/05/31 10:04:51;;;;;;;4.93;2.90;;;;;;;;;;5050654;28;20216;-78
2022/05/31 10:07:37;;;;;;;7.00;3.00;;;;;;;;;;5064466;28;20177;-78
2022/05/31 10:10:12;;;;;;;3.47;2.30;;;;;;;;;;5067333;28;20189;-76
2022/05/31 10:12:48;;;;;;;3.30;2.63;;;;;;;;;;5071369;28;20282;-76
2022/05/31 10:15:29;;;;;;;6.60;3.20;;;;;;;;;;5063513;28;20786;-76
2022/05/31 10:18:04;;;;;;;3.77;2.87;;;;;;;;;;5064842;28;20200;-76
2022/05/31 10:20:32;;;;;;;6.27;3.10;;;;;;;;;;5048220;28;20204;-76
2022/05/31 10:23:00;;;;;;;4.30;2.97;;;;;;;;;;5065586;28;20205;-76
2022/05/31 10:25:47;;;;;;;3.70;2.80;;;;;;;;;;5060776;28;20469;-77
2022/05/31 10:28:36;;;;;;;6.03;3.30;;;;;;;;;;5063646;28;20181;-77
2022/05/31 10:31:20;;;;;;;7.97;3.67;;;;;;;;;;5048993;28;20211;-77
2022/05/31 10:34:03;;;;;;;6.03;3.93;;;;;;;;;;5071711;28;20225;-77
2022/05/31 10:36:46;;;;;;;6.17;3.33;;;;;;;;;;5071509;28;20925;-76
2022/05/31 10:39:16;;;;;;;5.53;3.10;;;;;;;;;;5054333;28;20185;-76
2022/05/31 10:41:43;;;;;;;6.67;3.03;;;;;;;;;;5068421;28;20581;-75
2022/05/31 10:44:25;;;;;;;4.87;3.03;;;;;;;;;;5071101;28;20227;-75
2022/05/31 10:46:52;;;;;;;5.03;3.10;;;;;;;;;;5070383;28;20188;-75
2022/05/31 10:49:20;;;;;;;6.60;3.80;;;;;;;;;;5060461;28;20182;-75
2022/05/31 10:51:56;;;;;;;4.50;3.13;;;;;;;;;;5068539;28;20188;-75
2022/05/31 10:54:37;;;;;;;4.30;3.40;;;;;;;;;;5071824;28;20200;-75
2022/05/31 10:57:06;;;;;;;6.10;3.60;;;;;;;;;;5071567;28;20290;-75
2022/05/31 10:59:38;;;;;;;6.03;3.20;;;;;;;;;;5071279;28;20211;-75
2022/05/31 11:02:13;;;;;;;5.27;3.33;;;;;;;;;;5065958;28;20208;-76
2022/05/31 11:04:50;;;;;;;5.53;3.10;;;;;;;;;;5065888;28;20209;-76
2022/05/31 11:07:16;;;;;;;4.77;2.90;;;;;;;;;;5069546;28;20245;-76
2022/05/31 11:12:58;;;;;;;4.13;2.33;;;;;;;;;;5058327;28;20189;-76
2022/05/31 11:15:29;;;;;;;2.13;1.93;;;;;;;;;;5064803;28;20212;-78
2022/05/31 11:17:58;;;;;;;5.23;2.20;;;;;;;;;;5063675;28;20633;-76
2022/05/31 11:20:49;;;;;;;3.90;2.13;;;;;;;;;;5062066;28;20189;-76
2022/05/31 11:23:18;;;;;;;4.20;1.80;;;;;;;;;;5060094;28;20221;-76
2022/05/31 11:25:54;;;;;;;4.80;1.83;;;;;;;;;;5064872;28;20185;-76
2022/05/31 11:28:39;;;;;;;2.23;1.80;;;;;;;;;;5064078;28;20660;-77
2022/05/31 11:31:24;;;;;;;2.63;1.60;;;;;;;;;;5053249;28;20277;-76
2022/05/31 11:34:06;;;;;;;2.40;1.60;;;;;;;;;;5053576;28;20202;-77
2022/05/31 11:36:44;;;;;;;3.40;1.80;;;;;;;;;;5063183;28;20186;-79
2022/05/31 11:39:22;;;;;;;1.70;1.60;;;;;;;;;;5047002;28;20190;-76
2022/05/31 11:42:02;;;;;;;2.93;2.07;;;;;;;;;;5064442;28;20212;-76
2022/05/31 11:44:38;;;;;;;3.67;1.80;;;;;;;;;;5058630;28;20197;-76
2022/05/31 11:47:10;;;;;;;4.77;2.27;;;;;;;;;;5049059;28;20184;-76
2022/05/31 11:49:45;;;;;;;3.93;1.90;;;;;;;;;;5051065;28;20200;-76
2022/05/31 11:52:24;;;;;;;2.93;2.00;;;;;;;;;;5054502;28;20188;-76
2022/05/31 11:57:55;;;;;;;3.13;1.70;;;;;;;;;;5067601;28;20645;-76
2022/05/31 12:00:21;;;;;;;3.30;1.80;;;;;;;;;;5077657;28;20177;-76
2022/05/31 12:03:00;;;;;;;4.27;1.80;;;;;;;;;;5078433;28;20736;-76
2022/05/31 12:05:29;;;;;;;4.03;1.70;;;;;;;;;;5071467;28;20177;-76
2022/05/31 12:07:58;;;;;;;2.30;1.83;;;;;;;;;;5077114;28;20537;-76
2022/05/31 12:10:27;;;;;;;2.97;1.40;;;;;;;;;;5077075;28;20184;-76
2022/05/31 12:12:55;;;;;;;3.70;1.50;;;;;;;;;;5074306;28;20705;-76
2022/05/31 12:15:23;;;;;;;2.80;1.60;;;;;;;;;;5079342;28;22136;-76
2022/05/31 12:17:55;;;;;;;3.57;1.83;;;;;;;;;;5081046;28;20185;-76
2022/05/31 12:20:27;;;;;;;5.43;1.60;;;;;;;;;;5081315;28;20741;-76
2022/05/31 12:22:59;;;;;;;4.33;1.60;;;;;;;;;;5075618;28;20299;-77
2022/05/31 12:25:27;;;;;;;3.50;1.70;;;;;;;;;;5075454;28;20180;-76
2022/05/31 12:27:56;;;;;;;1.80;1.50;;;;;;;;;;5049102;28;20196;-77
2022/05/31 12:30:35;;;;;;;3.60;1.90;;;;;;;;;;5078234;28;20180;-78
2022/05/31 12:33:01;;;;;;;2.03;1.60;;;;;;;;;;5077625;28;20209;-76
2022/05/31 12:35:30;;;;;;;3.93;1.63;;;;;;;;;;5075617;28;20189;-77
2022/05/31 12:38:02;;;;;;;2.13;1.70;;;;;;;;;;5075317;28;20192;-77
2022/05/31 12:40:35;;;;;;;2.53;1.87;;;;;;;;;;5074597;28;20187;-77
2022/05/31 12:43:06;;;;;;;2.27;1.80;;;;;;;;;;5071207;28;20271;-77
2022/05/31 12:45:35;;;;;;;3.17;1.50;;;;;;;;;;5074629;28;20188;-77
2022/05/31 12:48:10;;;;;;;4.97;1.70;;;;;;;;;;5074505;28;20196;-77
2022/05/31 12:50:48;;;;;;;2.00;1.80;;;;;;;;;;5081857;28;20185;-77
2022/05/31 12:53:22;;;;;;;2.20;1.70;;;;;;;;;;5077919;28;20309;-77
2022/05/31 12:55:48;;;;;;;3.60;1.80;;;;;;;;;;5079870;28;20256;-77
2022/05/31 12:58:26;;;;;;;3.07;1.80;;;;;;;;;;5074472;28;20288;-77
2022/05/31 13:01:11;;;;;;;3.97;1.90;;;;;;;;;;5072662;28;20213;-77
2022/05/31 13:03:40;;;;;;;2.20;1.60;;;;;;;;;;5079230;28;20220;-78
2022/05/31 13:06:20;;;;;;;2.90;1.70;;;;;;;;;;5060436;28;20186;-77
2022/05/31 13:08:51;;;;;;;1.50;1.40;;;;;;;;;;5074160;28;20187;-77
2022/05/31 13:20:13;;;;;;;2.80;1.60;;;;;;;;;;5080836;28;20277;-77
2022/05/31 13:22:43;;;;;;;2.60;1.60;;;;;;;;;;5080363;28;20197;-77
2022/05/31 13:25:16;;;;;;;1.87;1.50;;;;;;;;;;5078770;28;20209;-77
2022/05/31 13:27:48;;;;;;;1.77;1.60;;;;;;;;;;5084799;28;20260;-78
2022/05/31 13:30:17;;;;;;;1.70;1.40;;;;;;;;;;5077499;28;20237;-78
2022/05/31 13:32:44;;;;;;;3.20;1.53;;;;;;;;;;5081454;28;20200;-78
2022/05/31 13:35:15;;;;;;;1.83;1.33;;;;;;;;;;5082861;28;20203;-78
2022/05/31 13:38:08;;;;;;;2.43;1.57;;;;;;;;;;5083086;28;20197;-78
2022/05/31 13:40:46;;;;;;;2.83;1.57;;;;;;;;;;5064393;28;20198;-78
2022/05/31 13:43:22;;;;;;;1.70;1.40;;;;;;;;;;5069228;28;20324;-78
2022/05/31 13:45:52;;;;;;;2.87;1.50;;;;;;;;;;5067575;28;20190;-77
2022/05/31 13:48:22;;;;;;;2.63;1.60;;;;;;;;;;5066494;28;20619;-78
2022/05/31 13:50:54;;;;;;;2.13;1.60;;;;;;;;;;5074416;28;20201;-78
2022/05/31 13:53:21;;;;;;;1.83;1.50;;;;;;;;;;5071075;28;20206;-77
2022/05/31 13:55:54;;;;;;;2.17;1.30;;;;;;;;;;5071733;28;20196;-77
2022/05/31 13:58:23;;;;;;;4.70;1.70;;;;;;;;;;5062057;28;20254;-77
2022/05/31 14:00:50;;;;;;;4.50;1.70;;;;;;;;;;5069823;28;20260;-77
2022/05/31 14:03:23;;;;;;;2.83;1.70;;;;;;;;;;5060648;28;20220;-78
2022/05/31 14:06:01;;;;;;;1.97;1.50;;;;;;;;;;5063433;28;20554;-77
2022/05/31 14:08:42;;;;;;;3.63;1.50;;;;;;;;;;5069482;28;20184;-77
2022/05/31 14:11:09;;;;;;;1.90;1.50;;;;;;;;;;5061183;28;20186;-77
2022/05/31 14:13:35;;;;;;;3.10;1.67;;;;;;;;;;5060479;28;20244;-77
2022/05/31 14:16:08;;;;;;;3.17;1.60;;;;;;;;;;5072138;28;20193;-78
2022/05/31 14:18:46;;;;;;;1.90;1.70;;;;;;;;;;5069281;28;20559;-78
2022/05/31 14:21:13;;;;;;;3.13;1.20;;;;;;;;;;5064074;28;20653;-78
2022/05/31 14:23:40;;;;;;;4.10;1.60;;;;;;;;;;5061792;28;20222;-77
2022/05/31 14:26:06;;;;;;;2.43;1.53;;;;;;;;;;5069688;28;20203;-77
2022/05/31 14:28:33;;;;;;;5.13;1.80;;;;;;;;;;5071684;28;20200;-77
2022/05/31 14:31:01;;;;;;;2.50;1.63;;;;;;;;;;5071188;28;20206;-77
2022/05/31 14:33:28;;;;;;;2.83;1.60;;;;;;;;;;5060180;28;20223;-77
2022/05/31 14:35:56;;;;;;;1.70;1.40;;;;;;;;;;5066655;28;20214;-77
2022/05/31 14:38:28;;;;;;;2.00;1.40;;;;;;;;;;5059429;28;20175;-77
2022/05/31 14:41:05;;;;;;;3.10;1.50;;;;;;;;;;5069147;28;20186;-77
2022/05/31 14:43:33;;;;;;;5.07;1.60;;;;;;;;;;5064525;28;20204;-77
2022/05/31 14:46:00;;;;;;;2.90;1.50;;;;;;;;;;5062091;28;20656;-77
2022/05/31 14:48:35;;;;;;;2.53;1.60;;;;;;;;;;5065927;28;20593;-77
2022/05/31 14:51:20;;;;;;;2.10;1.30;;;;;;;;;;5063838;28;20188;-76
2022/05/31 14:53:48;;;;;;;2.47;1.50;;;;;;;;;;5069395;28;20248;-77
2022/05/31 14:56:20;;;;;;;1.90;1.67;;;;;;;;;;5072953;28;20192;-77
2022/05/31 14:58:47;;;;;;;1.67;1.40;;;;;;;;;;5072951;28;20264;-77
2022/05/31 15:01:16;;;;;;;3.20;1.90;;;;;;;;;;5066866;28;20194;-77
2022/05/31 15:03:57;;;;;;;1.57;1.40;;;;;;;;;;5057544;28;20245;-77
2022/05/31 15:06:28;;;;;;;2.53;1.33;;;;;;;;;;5063208;28;20222;-77
2022/05/31 15:09:03;;;;;;;2.37;1.40;;;;;;;;;;5061249;28;20248;-77
2022/05/31 15:19:45;;;;;;;2.53;1.20;;;;;;;;;;5064460;28;20184;-78
2022/05/31 15:22:13;;;;;;;2.23;1.50;;;;;;;;;;5065009;28;20216;-77
2022/05/31 15:24:42;;;;;;;2.70;1.40;;;;;;;;;;5061942;28;20193;-77
2022/05/31 15:27:12;;;;;;;1.63;1.47;;;;;;;;;;5069263;28;20180;-76
2022/05/31 15:29:38;;;;;;;1.70;1.37;;;;;;;;;;5054720;28;20324;-77
2022/05/31 15:32:04;;;;;;;2.57;1.33;;;;;;;;;;5060108;28;20241;-75
2022/05/31 15:34:33;;;;;;;1.83;1.30;;;;;;;;;;5059632;28;20298;-76
2022/05/31 15:37:01;;;;;;;1.80;1.50;;;;;;;;;;5054140;28;20181;-77
2022/05/31 15:39:28;;;;;;;4.23;1.90;;;31.70;29.70;;;;;;5047820;28;20264;-77
2022/05/31 15:41:54;;;;;;;3.77;2.40;;;26.20;32.50;;;;;;5049274;28;20755;-77
2022/05/31 15:44:20;;;;;;;4.10;1.90;;;26.00;32.10;;;;;;5068544;28;20200;-77
2022/05/31 15:46:46;;;;;;;3.00;1.73;;;26.30;32.00;;;;;;5069091;28;20269;-77
2022/05/31 15:49:13;;;;;;;3.47;1.47;;;26.30;32.10;;;;;;5067346;28;20272;-77
2022/05/31 15:51:47;;;;;;;2.10;1.53;;;26.20;32.50;;;;;;5063161;28;20185;-77
2022/05/31 15:54:18;;;;;;;4.83;1.50;;;26.20;32.60;;;;;;5069601;28;20193;-77
2022/05/31 15:56:46;;;;;;;1.90;1.40;;;26.60;32.40;;;;;;5065332;28;20173;-77
2022/05/31 15:59:15;;;;;;;3.10;1.80;;;;;;;;;;5048512;28;20189;-77